createdAt,value
2019-02-28T00:02:10.680Z,67.50
2019-02-28T00:04:37.084Z,67.00
2019-02-28T00:07:03.418Z,67.90
2019-02-28T00:09:29.675Z,68.10
2019-02-28T00:11:55.910Z,67.80
2019-02-28T00:14:22.162Z,68.50
2019-02-28T00:16:48.451Z,91.70
2019-02-28T00:19:14.810Z,84.80
2019-02-28T00:21:41.326Z,90.00
2019-02-28T00:24:07.656Z,83.40
2019-02-28T00:26:33.968Z,82.70
2019-02-28T00:29:01.138Z,68.70
2019-02-28T00:31:27.689Z,69.00
2019-02-28T00:33:53.928Z,69.20
2019-02-28T00:36:20.211Z,70.40
2019-02-28T00:38:46.489Z,71.20
2019-02-28T00:41:12.735Z,71.80
2019-02-28T00:43:39.001Z,71.60
2019-02-28T00:46:07.255Z,72.10
2019-02-28T00:48:33.370Z,72.50
2019-02-28T00:50:59.859Z,72.90
2019-02-28T00:53:26.145Z,72.70
2019-02-28T00:55:52.413Z,73.30
2019-02-28T00:58:18.696Z,72.90
2019-02-28T01:00:45.087Z,72.90
2019-02-28T01:03:11.322Z,72.60
2019-02-28T01:05:37.599Z,73.20
2019-02-28T01:08:03.851Z,73.10
2019-02-28T01:10:38.828Z,72.90
2019-02-28T01:13:01.677Z,72.70
2019-02-28T01:15:27.995Z,72.90
2019-02-28T01:17:57.213Z,73.70
2019-02-28T01:20:22.348Z,73.80
2019-02-28T01:22:48.859Z,73.60
2019-02-28T01:25:17.712Z,74.00
2019-02-28T01:27:43.945Z,73.40
2019-02-28T01:30:12.710Z,74.10
2019-02-28T01:32:38.953Z,74.90
2019-02-28T01:35:06.968Z,75.20
2019-02-28T01:37:33.370Z,75.30
2019-02-28T01:40:01.130Z,75.20
2019-02-28T01:42:27.772Z,75.00
2019-02-28T01:44:54.027Z,74.10
2019-02-28T01:47:21.053Z,74.90
2019-02-28T01:49:47.279Z,74.50
2019-02-28T01:52:13.610Z,75.50
2019-02-28T01:54:40.153Z,74.50
2019-02-28T01:57:08.969Z,74.60
2019-02-28T01:59:34.445Z,75.50
2019-02-28T02:02:05.567Z,76.50
2019-02-28T02:04:28.798Z,76.80
2019-02-28T02:06:59.628Z,76.50
2019-02-28T02:09:23.794Z,76.30
2019-02-28T02:11:50.402Z,75.80
2019-02-28T02:14:16.692Z,77.10
2019-02-28T02:16:42.956Z,76.20
2019-02-28T02:19:09.292Z,76.40
2019-02-28T02:21:35.661Z,76.30
2019-02-28T02:24:01.873Z,76.60
2019-02-28T02:26:28.178Z,76.20
2019-02-28T02:28:54.468Z,76.30
2019-02-28T02:31:27.191Z,77.40
2019-02-28T02:33:52.458Z,77.90
2019-02-28T02:36:17.779Z,77.20
2019-02-28T02:38:44.631Z,76.80
2019-02-28T02:41:10.883Z,77.30
2019-02-28T02:43:37.225Z,77.80
2019-02-28T02:46:05.799Z,77.20
2019-02-28T02:48:32.056Z,78.50
2019-02-28T02:50:58.299Z,79.20
2019-02-28T02:53:24.808Z,79.50
2019-02-28T02:55:51.136Z,79.20
2019-02-28T02:58:17.371Z,79.20
2019-02-28T03:00:51.295Z,78.80
2019-02-28T03:03:14.371Z,78.90
2019-02-28T03:05:40.620Z,78.20
2019-02-28T03:08:06.894Z,78.80
2019-02-28T03:10:35.466Z,79.00
2019-02-28T03:13:04.803Z,79.80
2019-02-28T03:15:29.797Z,79.50
2019-02-28T03:17:56.380Z,78.70
2019-02-28T03:20:24.530Z,79.60
2019-02-28T03:22:50.794Z,79.40
2019-02-28T03:25:17.080Z,79.30
2019-02-28T03:27:43.471Z,79.40
2019-02-28T03:30:27.951Z,80.10
2019-02-28T03:32:45.266Z,80.90
2019-02-28T03:35:11.524Z,81.30
2019-02-28T03:37:37.781Z,82.20
2019-02-28T03:40:07.066Z,82.30
2019-02-28T03:42:53.720Z,82.10
2019-02-28T03:45:19.988Z,82.20
2019-02-28T03:47:46.279Z,82.00
2019-02-28T03:50:12.512Z,83.00
2019-02-28T03:52:43.893Z,82.60
2019-02-28T03:55:08.779Z,82.30
2019-02-28T03:57:35.151Z,82.90
2019-02-28T04:00:01.407Z,82.50
2019-02-28T04:02:27.686Z,82.80
2019-02-28T04:04:53.945Z,82.50
2019-02-28T04:07:20.567Z,83.50
2019-02-28T04:09:46.830Z,83.20
2019-02-28T04:12:13.217Z,83.20
2019-02-28T04:14:39.481Z,83.40
2019-02-28T04:17:05.741Z,83.80
2019-02-28T04:19:32.066Z,83.20
2019-02-28T04:21:58.295Z,82.80
2019-02-28T04:24:24.669Z,83.20
2019-02-28T04:26:50.962Z,83.50
2019-02-28T04:29:17.254Z,85.20
2019-02-28T04:31:43.616Z,85.20
2019-02-28T04:34:13.297Z,85.30
2019-02-28T04:36:37.952Z,85.10
2019-02-28T04:39:05.990Z,85.30
2019-02-28T04:41:32.911Z,85.00
2019-02-28T04:44:00.101Z,84.70
2019-02-28T04:46:28.356Z,84.70
2019-02-28T04:48:54.430Z,86.20
2019-02-28T04:51:20.710Z,85.80
2019-02-28T04:53:47.338Z,85.70
2019-02-28T04:56:13.922Z,86.80
2019-02-28T04:58:40.243Z,86.80
2019-02-28T05:01:09.239Z,87.50
2019-02-28T05:03:34.530Z,87.90
2019-02-28T05:06:01.139Z,88.50
2019-02-28T05:08:27.411Z,89.60
2019-02-28T05:10:55.947Z,89.90
2019-02-28T05:13:22.011Z,90.20
2019-02-28T05:15:48.251Z,90.20
2019-02-28T05:18:14.602Z,90.30
2019-02-28T05:20:45.181Z,90.50
2019-02-28T05:23:09.391Z,90.50
2019-02-28T05:25:35.629Z,90.30
2019-02-28T05:28:01.961Z,90.30
2019-02-28T05:30:28.210Z,90.40
2019-02-28T05:32:54.504Z,90.50
2019-02-28T05:35:25.534Z,90.30
2019-02-28T05:37:48.903Z,90.80
2019-02-28T05:40:15.164Z,91.10
2019-02-28T05:42:41.408Z,90.50
2019-02-28T05:45:11.370Z,91.30
2019-02-28T05:47:46.100Z,91.40
2019-02-28T05:50:15.524Z,91.10
2019-02-28T05:52:40.629Z,91.20
2019-02-28T05:55:07.971Z,90.90
2019-02-28T05:57:34.227Z,91.40
2019-02-28T06:00:03.027Z,91.40
2019-02-28T06:02:29.502Z,92.20
2019-02-28T06:04:55.778Z,92.40
2019-02-28T06:07:22.155Z,92.60
2019-02-28T06:09:51.399Z,92.90
2019-02-28T06:12:17.923Z,92.70
2019-02-28T06:14:44.159Z,92.50
2019-02-28T06:17:10.384Z,92.30
2019-02-28T06:19:40.276Z,92.30
2019-02-28T06:22:08.065Z,92.20
2019-02-28T06:24:34.478Z,92.50
2019-02-28T06:27:03.727Z,92.80
2019-02-28T06:29:29.203Z,93.00
2019-02-28T06:31:55.533Z,93.00
2019-02-28T06:34:23.314Z,93.80
2019-02-28T06:36:50.304Z,94.10
2019-02-28T06:39:18.508Z,93.60
2019-02-28T06:41:46.756Z,93.80
2019-02-28T06:44:13.039Z,93.50
2019-02-28T06:46:39.999Z,93.40
2019-02-28T06:49:07.261Z,93.60
2019-02-28T06:51:33.537Z,93.70
2019-02-28T06:53:59.990Z,93.80
2019-02-28T06:56:26.234Z,93.80
2019-02-28T06:58:52.537Z,93.80
2019-02-28T07:01:19.277Z,94.00
2019-02-28T07:03:53.229Z,93.70
2019-02-28T07:06:15.131Z,93.60
2019-02-28T07:08:41.545Z,94.20
2019-02-28T07:11:07.827Z,93.60
2019-02-28T07:13:38.766Z,93.70
2019-02-28T07:16:04.328Z,93.90
2019-02-28T07:18:30.359Z,93.80
2019-02-28T07:20:56.610Z,94.70
2019-02-28T07:23:22.872Z,94.90
2019-02-28T07:25:49.136Z,95.20
2019-02-28T07:28:15.447Z,95.40
2019-02-28T07:30:50.392Z,95.40
2019-02-28T07:33:17.701Z,94.80
2019-02-28T07:35:43.959Z,95.20
2019-02-28T07:38:10.297Z,95.40
2019-02-28T07:40:36.844Z,95.20
2019-02-28T07:43:03.227Z,95.00
2019-02-28T07:45:29.620Z,95.40
2019-02-28T07:47:57.614Z,95.20
2019-02-28T07:50:23.927Z,95.40
2019-02-28T07:52:50.279Z,95.50
2019-02-28T07:55:18.134Z,95.80
2019-02-28T07:57:44.440Z,95.50
2019-02-28T08:00:20.985Z,95.30
2019-02-28T08:02:47.297Z,95.50
2019-02-28T08:05:13.623Z,94.80
2019-02-28T08:07:39.912Z,94.90
2019-02-28T08:10:12.758Z,95.20
2019-02-28T08:12:40.698Z,95.10
2019-02-28T08:15:10.790Z,95.30
2019-02-28T08:17:37.120Z,95.90
2019-02-28T08:20:08.349Z,95.70
2019-02-28T08:22:34.607Z,95.10
2019-02-28T08:25:00.890Z,95.20
2019-02-28T08:27:27.155Z,95.00
2019-02-28T08:29:53.408Z,95.20
2019-02-28T08:32:19.837Z,95.10
2019-02-28T08:34:46.897Z,94.90
2019-02-28T08:37:13.343Z,94.90
2019-02-28T08:39:41.180Z,95.50
2019-02-28T08:42:07.815Z,95.40
2019-02-28T08:44:34.122Z,95.30
2019-02-28T08:47:00.418Z,95.20
2019-02-28T08:49:26.999Z,95.70
2019-02-28T08:51:53.316Z,95.50
2019-02-28T08:54:26.046Z,95.60
2019-02-28T08:56:49.574Z,95.00
2019-02-28T08:59:20.441Z,95.00
2019-02-28T09:01:44.299Z,95.30
2019-02-28T09:04:10.879Z,95.50
2019-02-28T09:06:37.893Z,95.40
2019-02-28T09:09:06.025Z,95.30
2019-02-28T09:11:32.428Z,95.20
2019-02-28T09:13:58.649Z,95.30
2019-02-28T09:16:25.947Z,94.90
2019-02-28T09:18:52.247Z,94.80
2019-02-28T09:21:19.111Z,95.10
2019-02-28T09:23:45.574Z,95.40
2019-02-28T09:26:13.764Z,95.00
2019-02-28T09:28:40.014Z,94.50
2019-02-28T09:31:06.260Z,94.40
2019-02-28T09:33:32.716Z,94.30
2019-02-28T09:35:59.069Z,93.80
2019-02-28T09:38:25.578Z,93.90
2019-02-28T09:40:51.826Z,94.20
2019-02-28T09:43:18.173Z,94.00
2019-02-28T09:45:44.466Z,93.70
2019-02-28T09:48:10.834Z,93.80
2019-02-28T09:50:37.211Z,93.90
2019-02-28T09:53:03.468Z,93.90
2019-02-28T09:55:34.070Z,94.10
2019-02-28T09:57:57.947Z,94.20
2019-02-28T10:00:27.426Z,94.00
2019-02-28T10:02:53.399Z,93.90
2019-02-28T10:05:19.699Z,94.00
2019-02-28T10:07:48.565Z,93.50
2019-02-28T10:10:25.535Z,93.20
2019-02-28T10:12:51.788Z,93.30
2019-02-28T10:15:23.030Z,93.50
2019-02-28T10:17:49.543Z,93.30
2019-02-28T10:20:28.563Z,92.50
2019-02-28T10:22:54.999Z,92.40
2019-02-28T10:25:23.162Z,91.80
2019-02-28T10:27:49.493Z,92.30
2019-02-28T10:30:17.550Z,92.80
2019-02-28T10:32:44.056Z,92.70
2019-02-28T10:35:10.383Z,92.80
2019-02-28T10:37:36.732Z,92.90
2019-02-28T10:40:06.719Z,92.90
2019-02-28T10:42:33.257Z,92.90
2019-02-28T10:44:59.506Z,93.70
2019-02-28T10:47:29.394Z,93.40
2019-02-28T10:49:55.378Z,93.60
2019-02-28T10:52:23.470Z,93.70
2019-02-28T10:54:50.479Z,93.70
2019-02-28T10:57:16.972Z,93.40
2019-02-28T10:59:43.291Z,92.90
2019-02-28T11:02:09.830Z,92.80
2019-02-28T11:04:42.687Z,92.70
2019-02-28T11:07:09.579Z,93.20
2019-02-28T11:09:37.800Z,93.10
2019-02-28T11:12:04.187Z,93.00
2019-02-28T11:14:30.429Z,92.80
2019-02-28T11:16:59.394Z,92.80
2019-02-28T11:19:24.886Z,92.90
2019-02-28T11:21:51.161Z,93.00
2019-02-28T11:24:20.526Z,92.70
2019-02-28T11:26:47.287Z,92.60
2019-02-28T11:29:13.571Z,92.20
2019-02-28T11:31:39.948Z,92.60
2019-02-28T11:34:06.372Z,92.50
2019-02-28T11:36:34.080Z,92.60
2019-02-28T11:39:00.807Z,92.80
2019-02-28T11:41:27.114Z,92.70
2019-02-28T11:43:53.422Z,92.60
2019-02-28T11:46:19.634Z,92.60
2019-02-28T11:48:45.900Z,92.40
2019-02-28T11:51:14.662Z,92.40
2019-02-28T11:53:40.620Z,92.50
2019-02-28T11:56:10.701Z,92.50
2019-02-28T11:58:36.973Z,92.30
2019-02-28T12:01:03.457Z,92.20
2019-02-28T12:03:31.841Z,92.30
2019-02-28T12:05:57.850Z,92.30
2019-02-28T12:08:24.227Z,92.70
2019-02-28T12:10:50.590Z,92.60
2019-02-28T12:13:19.690Z,92.70
2019-02-28T12:15:47.295Z,92.60
2019-02-28T12:18:13.658Z,92.40
2019-02-28T12:20:39.961Z,92.40
2019-02-28T12:23:06.325Z,92.20
2019-02-28T12:25:32.637Z,92.10
2019-02-28T12:27:59.407Z,92.00
2019-02-28T12:30:28.776Z,92.00
2019-02-28T12:32:55.100Z,92.20
2019-02-28T12:35:27.066Z,92.30
2019-02-28T12:37:53.857Z,92.50
2019-02-28T12:40:29.095Z,91.90
2019-02-28T12:42:55.402Z,92.00
2019-02-28T12:45:27.725Z,92.00
2019-02-28T12:47:54.185Z,92.20
2019-02-28T12:50:20.448Z,91.90
2019-02-28T12:52:49.923Z,91.80
2019-02-28T12:55:16.718Z,91.70
2019-02-28T12:57:42.993Z,92.00
2019-02-28T13:00:19.837Z,92.00
2019-02-28T13:02:47.328Z,92.10
2019-02-28T13:05:15.792Z,91.70
2019-02-28T13:07:41.843Z,91.50
2019-02-28T13:10:16.564Z,92.00
2019-02-28T13:12:44.118Z,92.00
2019-02-28T13:15:13.950Z,91.80
2019-02-28T13:17:42.150Z,91.30
2019-02-28T13:20:14.091Z,91.10
2019-02-28T13:22:40.477Z,91.30
2019-02-28T13:25:11.613Z,91.60
2019-02-28T13:27:41.456Z,91.90
2019-02-28T13:30:20.684Z,91.50
2019-02-28T13:32:47.038Z,91.50
2019-02-28T13:35:25.421Z,91.70
2019-02-28T13:37:51.797Z,91.60
2019-02-28T13:40:18.057Z,91.40
2019-02-28T13:42:57.135Z,91.30
2019-02-28T13:45:24.337Z,91.30
2019-02-28T13:47:52.664Z,91.50
2019-02-28T13:50:29.460Z,91.60
2019-02-28T13:52:55.779Z,91.40
2019-02-28T13:55:22.017Z,91.30
2019-02-28T13:57:48.282Z,91.40
2019-02-28T14:00:19.512Z,91.30
2019-02-28T14:02:47.737Z,90.90
2019-02-28T14:05:13.972Z,90.90
2019-02-28T14:07:40.216Z,91.10
2019-02-28T14:10:11.403Z,91.30
2019-02-28T14:12:37.802Z,91.20
2019-02-28T14:15:07.838Z,90.90
2019-02-28T14:17:35.504Z,90.80
2019-02-28T14:20:04.275Z,90.90
2019-02-28T14:22:30.691Z,90.90
2019-02-28T14:24:57.064Z,90.70
2019-02-28T14:27:25.303Z,90.70
2019-02-28T14:29:51.789Z,90.80
2019-02-28T14:32:18.044Z,90.60
2019-02-28T14:34:44.293Z,90.00
2019-02-28T14:37:10.630Z,90.00
2019-02-28T14:39:39.811Z,90.00
2019-02-28T14:42:06.695Z,97.20
2019-02-28T14:44:33.081Z,93.90
2019-02-28T14:46:59.333Z,96.20
2019-02-28T14:49:28.849Z,93.70
2019-02-28T14:51:57.213Z,94.30
2019-02-28T14:54:24.714Z,92.20
2019-02-28T14:56:51.624Z,85.30
2019-02-28T14:59:17.886Z,85.10
2019-02-28T15:01:44.164Z,89.10
2019-02-28T15:04:10.412Z,87.40
2019-02-28T15:06:36.989Z,93.20
2019-02-28T15:09:06.058Z,92.30
2019-02-28T15:11:32.308Z,91.80
2019-02-28T15:13:59.937Z,84.00
2019-02-28T15:16:26.597Z,85.40
2019-02-28T15:18:54.451Z,86.00
2019-02-28T15:21:20.987Z,88.30
2019-02-28T15:23:47.238Z,88.40
2019-02-28T15:26:13.517Z,88.10
2019-02-28T15:28:39.906Z,88.40
2019-02-28T15:31:08.596Z,88.60
2019-02-28T15:33:34.276Z,88.90
2019-02-28T15:36:00.546Z,89.30
2019-02-28T15:38:26.896Z,89.80
2019-02-28T15:40:55.768Z,89.40
2019-02-28T15:43:21.253Z,89.60
2019-02-28T15:45:47.569Z,88.80
2019-02-28T15:48:13.865Z,89.00
2019-02-28T15:50:40.113Z,88.70
2019-02-28T15:53:11.306Z,88.00
2019-02-28T15:55:36.610Z,87.80
2019-02-28T15:58:05.926Z,88.40
2019-02-28T16:00:33.687Z,88.50
2019-02-28T16:02:59.952Z,88.80
2019-02-28T16:05:26.837Z,89.30
2019-02-28T16:08:13.035Z,89.70
2019-02-28T16:10:39.351Z,89.60
2019-02-28T16:13:07.457Z,89.50
2019-02-28T16:15:34.167Z,89.30
2019-02-28T16:18:00.675Z,89.00
2019-02-28T16:20:28.618Z,89.10
2019-02-28T16:22:55.133Z,88.50
2019-02-28T16:25:27.284Z,89.00
2019-02-28T16:27:53.624Z,89.30
2019-02-28T16:30:19.853Z,88.90
2019-02-28T16:32:49.131Z,89.00
2019-02-28T16:35:15.311Z,88.80
2019-02-28T16:37:41.816Z,88.80
2019-02-28T16:40:11.945Z,88.80
2019-02-28T16:42:40.172Z,88.90
2019-02-28T16:45:14.397Z,88.50
2019-02-28T16:47:40.854Z,88.20
2019-02-28T16:50:09.469Z,88.20
2019-02-28T16:52:37.338Z,87.90
2019-02-28T16:55:06.720Z,87.80
2019-02-28T16:57:33.039Z,87.90
2019-02-28T16:59:59.504Z,88.70
2019-02-28T17:02:26.382Z,88.50
2019-02-28T17:04:52.978Z,89.00
2019-02-28T17:07:19.339Z,88.60
2019-02-28T17:09:45.580Z,88.70
2019-02-28T17:12:27.238Z,88.90
2019-02-28T17:14:54.039Z,88.40
2019-02-28T17:17:22.222Z,88.60
2019-02-28T17:19:48.593Z,88.20
2019-02-28T17:22:14.872Z,88.30
2019-02-28T17:24:45.749Z,88.80
2019-02-28T17:27:11.219Z,89.10
2019-02-28T17:29:45.478Z,88.90
2019-02-28T17:32:11.950Z,88.80
2019-02-28T17:34:38.345Z,89.30
2019-02-28T17:37:04.589Z,89.70
2019-02-28T17:39:30.886Z,89.70
2019-02-28T17:41:57.135Z,89.10
2019-02-28T17:44:27.853Z,88.40
2019-02-28T17:47:09.111Z,88.80
2019-02-28T17:49:42.749Z,88.70
2019-02-28T17:52:12.946Z,88.80
2019-02-28T17:54:58.148Z,89.00
2019-02-28T17:57:31.289Z,89.00
2019-02-28T18:00:07.052Z,89.30
2019-02-28T18:02:43.018Z,89.40
2019-02-28T18:05:30.040Z,90.00
2019-02-28T18:08:03.066Z,90.00
2019-02-28T18:11:09.630Z,95.10
2019-02-28T18:14:14.971Z,98.40
2019-02-28T18:17:03.606Z,87.30
2019-02-28T18:19:39.546Z,97.70
2019-02-28T18:22:12.934Z,93.80
2019-02-28T18:25:18.491Z,84.60
2019-02-28T18:27:54.057Z,84.60
2019-02-28T18:30:27.604Z,88.40
2019-02-28T18:32:53.977Z,88.50
2019-02-28T18:35:20.690Z,89.10
2019-02-28T18:37:48.897Z,89.90
2019-02-28T18:40:15.150Z,89.70
2019-02-28T18:42:41.467Z,90.00
2019-02-28T18:45:09.822Z,90.30
2019-02-28T18:47:39.732Z,90.60
2019-02-28T18:50:07.510Z,90.60
2019-02-28T18:52:34.491Z,90.50
2019-02-28T18:55:06.100Z,89.90
2019-02-28T18:57:28.989Z,89.00
2019-02-28T18:59:55.218Z,89.10
2019-02-28T19:02:21.698Z,89.00
2019-02-28T19:04:48.094Z,89.00
2019-02-28T19:07:14.349Z,90.00
2019-02-28T19:09:40.638Z,90.10
2019-02-28T19:12:07.026Z,90.10
2019-02-28T19:14:33.292Z,90.20
2019-02-28T19:16:59.620Z,90.30
2019-02-28T19:19:26.122Z,90.20
2019-02-28T19:21:52.379Z,90.40
2019-02-28T19:24:21.095Z,90.80
2019-02-28T19:26:47.580Z,90.80
2019-02-28T19:29:13.834Z,90.40
2019-02-28T19:31:40.152Z,90.30
2019-02-28T19:34:06.568Z,90.00
2019-02-28T19:36:33.064Z,90.00
2019-02-28T19:38:59.517Z,90.00
2019-02-28T19:41:28.146Z,90.00
2019-02-28T19:43:54.457Z,90.10
2019-02-28T19:46:20.786Z,90.10
2019-02-28T19:48:47.148Z,90.20
2019-02-28T19:51:13.431Z,90.20
2019-02-28T19:53:41.506Z,90.10
2019-02-28T19:56:07.722Z,90.00
2019-02-28T19:58:34.182Z,90.00
2019-02-28T20:01:00.726Z,90.00
2019-02-28T20:03:26.972Z,90.00
2019-02-28T20:05:53.456Z,90.10
2019-02-28T20:08:19.742Z,90.20
2019-02-28T20:10:47.180Z,90.00
2019-02-28T20:13:18.520Z,90.00
2019-02-28T20:15:44.898Z,90.30
2019-02-28T20:18:11.174Z,90.20
2019-02-28T20:20:37.632Z,90.20
2019-02-28T20:23:03.883Z,90.20
2019-02-28T20:25:30.316Z,90.60
2019-02-28T20:27:56.670Z,90.40
2019-02-28T20:30:24.760Z,90.30
2019-02-28T20:32:51.526Z,90.20
2019-02-28T20:35:26.128Z,90.10
2019-02-28T20:37:46.080Z,90.80
2019-02-28T20:40:18.329Z,90.40
2019-02-28T20:42:44.632Z,90.30
2019-02-28T20:45:11.154Z,90.20
2019-02-28T20:47:37.642Z,90.00
2019-02-28T20:50:07.790Z,90.10
2019-02-28T20:52:34.108Z,90.20
2019-02-28T20:55:00.674Z,90.30
2019-02-28T20:57:26.948Z,90.70
2019-02-28T20:59:53.299Z,90.70
2019-02-28T21:02:19.582Z,90.70
2019-02-28T21:04:45.912Z,90.30
2019-02-28T21:07:12.241Z,90.10
2019-02-28T21:09:44.911Z,90.40
2019-02-28T21:12:07.928Z,90.20
2019-02-28T21:14:34.152Z,90.10
2019-02-28T21:17:01.039Z,90.40
2019-02-28T21:19:27.571Z,90.30
2019-02-28T21:21:53.938Z,90.20
2019-02-28T21:24:20.461Z,90.30
2019-02-28T21:26:46.745Z,90.30
2019-02-28T21:29:12.965Z,90.00
2019-02-28T21:31:39.271Z,90.30
2019-02-28T21:34:05.538Z,89.70
2019-02-28T21:36:31.981Z,89.40
2019-02-28T21:38:58.575Z,88.50
2019-02-28T21:41:24.841Z,88.80
2019-02-28T21:43:51.262Z,90.30
2019-02-28T21:46:17.572Z,90.30
2019-02-28T21:48:44.193Z,90.10
2019-02-28T21:51:10.804Z,90.10
2019-02-28T21:53:37.216Z,89.60
2019-02-28T21:56:03.483Z,95.10
2019-02-28T21:58:31.240Z,90.00
2019-02-28T22:00:57.882Z,90.20
2019-02-28T22:03:24.169Z,89.30
2019-02-28T22:05:50.604Z,90.20
2019-02-28T22:08:17.132Z,90.40
2019-02-28T22:10:43.415Z,90.20
2019-02-28T22:13:09.818Z,90.10
2019-02-28T22:15:38.051Z,90.30
2019-02-28T22:18:04.810Z,90.60
2019-02-28T22:20:31.217Z,90.70
2019-02-28T22:22:57.806Z,90.20
2019-02-28T22:25:24.095Z,90.40
2019-02-28T22:27:50.527Z,90.70
2019-02-28T22:30:43.071Z,90.40
2019-02-28T22:33:29.403Z,90.00
2019-02-28T22:36:03.816Z,90.00
2019-02-28T22:38:30.309Z,90.70
2019-02-28T22:40:56.544Z,90.30
2019-02-28T22:43:22.900Z,90.30
2019-02-28T22:45:49.161Z,90.50
2019-02-28T22:48:15.439Z,90.50
2019-02-28T22:50:41.736Z,90.70
2019-02-28T22:53:07.975Z,90.80
2019-02-28T22:55:34.230Z,90.90
2019-02-28T22:58:04.309Z,90.80
2019-02-28T23:00:51.478Z,90.50
2019-02-28T23:03:19.741Z,89.80
2019-02-28T23:05:48.143Z,88.70
2019-02-28T23:08:14.384Z,88.20
2019-02-28T23:10:40.759Z,88.70
2019-02-28T23:13:09.149Z,89.10
2019-02-28T23:15:37.443Z,88.80
2019-02-28T23:18:03.485Z,88.80
2019-02-28T23:20:29.694Z,89.00
2019-02-28T23:22:55.978Z,88.60
2019-02-28T23:25:22.231Z,88.60
2019-02-28T23:27:48.468Z,89.80
2019-02-28T23:30:21.433Z,90.40
2019-02-28T23:32:51.510Z,90.80
2019-02-28T23:35:21.077Z,90.90
2019-02-28T23:37:47.360Z,91.10
2019-02-28T23:40:13.609Z,91.10
2019-02-28T23:42:39.937Z,91.10
2019-02-28T23:45:06.853Z,90.70
2019-02-28T23:47:35.005Z,90.00
2019-02-28T23:50:01.644Z,89.00
2019-02-28T23:52:27.887Z,88.50
2019-02-28T23:54:54.157Z,88.40
2019-02-28T23:57:20.414Z,87.50
2019-02-28T23:59:46.584Z,87.60
